Time;durP1;ratioP1;P1;durP2;ratioP2;P2;SDS_P1;SDS_P2;PMS_P1;PMS_P2;Temp;Humidity;BMP_temperature;BMP_pressure;BME280_temperature;BME280_humidity;BME280_pressure;Samples;Min_cycle;Max_cycle;Signal;HPM_P1;HPM_P2
2021/06/15 00:00:10;;;;;;;7.42;6.40;;;;;;;19.33;76.61;99625.07;1737269;81;21044;-69
2021/06/15 00:02:36;;;;;;;7.22;6.60;;;;;;;19.38;76.50;99626.28;1735806;82;21054;-77
2021/06/15 00:05:05;;;;;;;12.37;7.35;;;;;;;19.39;76.54;99631.44;1713908;82;21046;-74
2021/06/15 00:07:32;;;;;;;9.33;8.13;;;;;;;19.37;75.87;99626.06;1719421;82;21552;-76
2021/06/15 00:09:59;;;;;;;8.18;6.92;;;;;;;19.37;75.82;99620.61;1706512;84;21012;-75
2021/06/15 00:12:25;;;;;;;6.25;5.65;;;;;;;19.34;75.70;99619.84;1706265;84;21268;-75
2021/06/15 00:14:52;;;;;;;10.10;6.80;;;;;;;19.36;75.68;99623.08;1726976;81;20974;-79
2021/06/15 00:17:19;;;;;;;8.03;6.83;;;;;;;19.33;75.35;99619.62;1707189;82;20993;-76
2021/06/15 00:19:45;;;;;;;8.25;7.55;;;;;;;19.34;75.42;99616.56;1709237;81;20988;-74
2021/06/15 00:22:12;;;;;;;8.08;7.28;;;;;;;19.32;75.24;99612.55;1735725;82;22184;-78
2021/06/15 00:24:38;;;;;;;7.92;7.28;;;;;;;19.34;75.26;99615.75;1742419;81;21724;-74
2021/06/15 00:27:05;;;;;;;9.03;8.13;;;;;;;19.31;75.29;99613.09;1712100;83;20979;-75
2021/06/15 00:29:31;;;;;;;8.95;8.10;;;;;;;19.28;75.54;99611.55;1713335;83;20936;-75
2021/06/15 00:31:58;;;;;;;9.98;8.38;;;;;;;19.25;75.73;99612.16;1678916;84;21024;-72
2021/06/15 00:34:25;;;;;;;8.85;8.15;;;;;;;19.18;75.95;99606.56;1677060;85;21526;-74
2021/06/15 00:36:51;;;;;;;10.60;8.58;;;;;;;19.15;76.11;99607.19;1733994;82;21109;-74
2021/06/15 00:39:17;;;;;;;8.78;7.97;;;;;;;19.19;76.09;99611.46;1734368;82;20992;-72
2021/06/15 00:41:44;;;;;;;9.23;8.43;;;;;;;19.15;76.10;99606.38;1709635;82;20979;-70
2021/06/15 00:44:12;;;;;;;7.80;7.10;;;;;;;19.15;76.13;99611.28;1754414;81;21653;-69
2021/06/15 00:46:39;;;;;;;9.13;8.23;;;;;;;19.15;75.97;99607.75;1696518;83;21607;-68
2021/06/15 00:49:07;;;;;;;8.88;8.08;;;;;;;19.16;75.76;99613.45;1711852;82;21163;-74
2021/06/15 00:51:34;;;;;;;8.38;7.67;;;;;;;19.16;75.41;99607.45;1724378;81;21018;-73
2021/06/15 00:54:01;;;;;;;7.60;7.00;;;;;;;19.19;75.01;99616.91;1739067;81;21042;-73
2021/06/15 00:56:28;;;;;;;8.58;6.62;;;;;;;19.20;74.84;99608.18;1724025;82;20967;-72
2021/06/15 00:58:55;;;;;;;8.40;7.50;;;;;;;19.23;74.71;99607.58;1767966;81;20999;-72
2021/06/15 01:01:23;;;;;;;10.28;8.70;;;;;;;19.27;74.82;99609.38;1746000;81;21058;-73
2021/06/15 01:03:50;;;;;;;14.93;9.53;;;;;;;19.28;75.21;99612.92;1745141;81;20996;-73
2021/06/15 01:06:30;;;;;;;8.98;8.20;;;;;;;19.31;75.32;99606.84;1741261;82;21064;-73
2021/06/15 01:09:02;;;;;;;9.45;8.65;;;;;;;19.32;75.48;99611.98;1690876;83;21051;-71
2021/06/15 01:11:50;;;;;;;;;;;;;;;19.28;75.76;99610.19;1721194;82;21347;-77
2021/06/15 01:14:19;;;;;;;11.25;8.93;;;;;;;19.23;76.14;99608.95;1726692;82;22035;-74
2021/06/15 01:17:14;;;;;;;9.13;8.23;;;;;;;19.18;76.64;99607.70;1680492;85;20928;-71
2021/06/15 01:19:56;;;;;;;10.25;9.35;;;;;;;19.11;77.13;99613.02;1685614;83;21488;-71
2021/06/15 01:22:44;;;;;;;10.30;9.30;;;;;;;19.08;77.54;99620.45;1763770;81;21476;-73
2021/06/15 01:25:45;;;;;;;9.70;8.75;;;;;;;19.04;78.09;99620.80;1719790;82;21031;-72
2021/06/15 01:28:19;;;;;;;9.85;8.88;;;;;;;18.98;78.46;99619.87;1726902;83;21158;-74
2021/06/15 01:31:02;;;;;;;9.85;9.00;;;;;;;18.90;78.87;99615.13;1727088;83;21056;-73
2021/06/15 01:33:32;;;;;;;10.03;9.13;;;;;;;18.87;79.17;99617.11;1726779;83;21527;-74
2021/06/15 01:35:58;;;;;;;8.20;7.42;;;;;;;18.82;79.48;99619.39;1727065;83;21501;-75
2021/06/15 01:38:31;;;;;;;9.20;8.20;;;;;;;18.80;80.05;99618.10;1727155;83;21051;-74
2021/06/15 01:41:08;;;;;;;9.65;8.80;;;;;;;18.76;80.29;99616.52;1736022;82;21831;-77
2021/06/15 01:43:43;;;;;;;9.48;8.58;;;;;;;18.77;80.37;99618.14;1722588;83;21098;-71
2021/06/15 01:46:12;;;;;;;10.13;9.05;;;;;;;18.71;81.38;99619.36;1705651;83;20995;-72
2021/06/15 01:48:55;;;;;;;8.80;8.00;;;;;;;18.68;81.33;99628.15;1726331;83;21102;-71
2021/06/15 01:51:22;;;;;;;6.87;6.33;;;;;;;18.65;81.58;99630.13;1705067;83;21046;-71
2021/06/15 01:53:59;;;;;;;9.53;8.53;;;;;;;18.61;82.40;99623.10;1711874;83;21333;-73
2021/06/15 01:56:28;;;;;;;9.15;8.33;;;;;;;18.61;82.37;99627.19;1685882;84;21602;-72
2021/06/15 01:58:57;;;;;;;9.58;8.63;;;;;;;18.63;82.52;99626.34;1718073;82;21011;-72
2021/06/15 02:01:26;;;;;;;7.95;7.25;;;;;;;18.67;82.63;99622.44;1742534;81;21052;-73
2021/06/15 02:03:55;;;;;;;8.63;7.92;;;;;;;18.67;83.16;99628.70;1746752;81;21471;-72
2021/06/15 02:06:24;;;;;;;11.65;8.40;;;;;;;18.65;83.09;99626.86;1762587;81;21059;-72
2021/06/15 02:11:45;;;;;;;8.75;8.05;;;;;;;18.59;83.33;99619.08;1742175;81;20971;-71
2021/06/15 02:14:24;;;;;;;9.10;8.38;;;;;;;18.56;83.48;99630.02;1733346;82;21595;-74
2021/06/15 02:16:58;;;;;;;7.80;7.15;;;;;;;18.56;83.55;99630.59;1657708;85;21142;-72
2021/06/15 02:19:44;;;;;;;10.55;8.35;;;;;;;18.55;83.48;99628.97;1709057;82;21067;-74
2021/06/15 02:22:15;;;;;;;9.85;8.13;;;;;;;18.61;82.96;99631.83;1707744;83;20988;-74
2021/06/15 02:24:44;;;;;;;9.48;8.30;;;;;;;18.66;82.66;99621.63;1717724;82;21022;-71
2021/06/15 02:27:15;;;;;;;10.18;9.18;;;;;;;18.70;82.29;99621.27;1716057;82;21555;-73
2021/06/15 02:29:42;;;;;;;8.68;7.62;;;;;;;18.78;81.99;99614.31;1739210;82;21079;-71
2021/06/15 02:32:11;;;;;;;8.33;7.53;;;;;;;18.85;81.64;99617.41;1710365;83;22093;-71
2021/06/15 02:34:48;;;;;;;7.15;6.55;;;;;;;18.89;81.30;99613.54;1705696;83;21181;-71
2021/06/15 02:37:33;;;;;;;7.92;7.22;;;;;;;18.95;80.85;99617.19;1690894;83;21046;-72
2021/06/15 02:40:00;;;;;;;7.50;6.87;;;;;;;18.98;80.54;99624.77;1664937;82;21641;-73
2021/06/15 02:42:28;;;;;;;10.05;9.20;;;;;;;19.01;80.40;99626.87;1689891;83;21086;-73
2021/06/15 02:44:57;;;;;;;10.05;8.83;;;;;;;19.06;80.44;99635.49;1694434;83;21179;-73
2021/06/15 02:47:25;;;;;;;8.73;7.30;;;;;;;19.12;80.40;99633.72;1686969;83;21595;-73
2021/06/15 02:49:57;;;;;;;6.47;5.85;;;;;;;19.23;79.86;99633.48;1657748;85;21002;-72
2021/06/15 02:52:39;;;;;;;8.03;6.87;;;;;;;19.30;79.39;99634.66;1684699;84;21362;-73
2021/06/15 02:55:16;;;;;;;7.60;6.87;;;;;;;19.36;79.10;99633.98;1716340;82;21139;-73
2021/06/15 02:57:42;;;;;;;8.70;7.30;;;;;;;19.39;78.53;99634.17;1710169;83;21198;-73
2021/06/15 03:00:11;;;;;;;12.33;8.30;;;;;;;19.42;78.32;99640.95;1714945;81;21591;-74
2021/06/15 03:02:38;;;;;;;10.05;8.58;;;;;;;19.43;78.46;99640.61;1675896;84;20941;-73
2021/06/15 03:05:10;;;;;;;10.80;8.18;;;;;;;19.52;78.39;99637.42;1695910;84;22268;-71
2021/06/15 03:07:37;;;;;;;13.70;8.48;;;;;;;19.64;78.04;99633.34;1768614;81;20900;-73
2021/06/15 03:10:07;;;;;;;8.75;7.53;;;;;;;19.70;77.42;99631.55;1739725;81;20976;-74
2021/06/15 03:12:45;;;;;;;9.08;7.15;;;;;;;19.75;77.12;99636.06;1754813;81;21011;-73
2021/06/15 03:15:14;;;;;;;10.60;9.60;;;;;;;19.80;76.94;99634.58;1733535;81;21009;-74
2021/06/15 03:18:03;;;;;;;10.08;8.50;;;;;;;19.86;76.74;99638.20;1725676;82;21511;-73
2021/06/15 03:20:31;;;;;;;10.13;7.05;;;;;;;19.92;76.38;99630.70;1703118;83;21071;-71
2021/06/15 03:23:24;;;;;;;11.05;8.55;;;;;;;19.95;75.67;99632.23;1726931;83;21593;-72
2021/06/15 03:25:50;;;;;;;8.25;7.45;;;;;;;19.97;75.46;99635.47;1711253;81;20944;-72
2021/06/15 03:28:24;;;;;;;10.15;6.75;;;;;;;20.00;75.56;99636.20;1717006;81;20963;-72
2021/06/15 03:30:52;;;;;;;10.08;8.85;;;;;;;20.02;75.57;99638.07;1727762;83;21004;-76
2021/06/15 03:33:19;;;;;;;12.25;7.15;;;;;;;20.05;75.53;99642.67;1706568;81;20886;-75
2021/06/15 03:35:56;;;;;;;9.95;8.95;;;;;;;20.03;75.53;99641.05;1747362;81;21031;-75
2021/06/15 03:38:28;;;;;;;9.25;8.33;;;;;;;20.02;75.61;99642.16;1732493;81;20968;-73
2021/06/15 03:40:57;;;;;;;8.35;6.97;;;;;;;20.06;75.72;99638.23;1685167;81;21014;-75
2021/06/15 03:43:23;;;;;;;29.67;21.33;;;;;;;20.11;75.67;99641.39;1755806;81;20921;-87
2021/06/15 03:46:10;;;;;;;10.13;9.23;;;;;;;20.13;75.40;99640.53;1687151;83;20995;-76
2021/06/15 03:48:41;;;;;;;8.75;7.90;;;;;;;20.17;75.09;99641.52;1735653;82;21153;-76
2021/06/15 03:51:15;;;;;;;9.00;8.10;;;;;;;20.19;74.67;99644.16;1707889;82;21520;-76
2021/06/15 03:53:42;;;;;;;8.13;6.85;;;;;;;20.20;74.30;99638.95;1656028;83;21171;-75
2021/06/15 03:56:09;;;;;;;6.92;6.30;;;;;;;20.24;74.12;99639.15;1665978;85;21064;-76
2021/06/15 03:58:36;;;;;;;9.58;7.58;;;;;;;20.30;73.75;99637.34;1676983;82;21056;-76
2021/06/15 04:01:03;;;;;;;6.85;6.22;;;;;;;20.36;73.29;99640.74;1726902;82;21925;-76
2021/06/15 04:03:36;;;;;;;8.90;7.00;;;;;;;20.50;72.73;99644.17;1691894;83;21005;-79
2021/06/15 04:06:03;;;;;;;9.08;8.28;;;;;;;20.50;72.73;99644.17;1715523;83;20981;-75
2021/06/15 04:08:30;;;;;;;10.65;6.92;;;;;;;20.56;71.97;99640.73;1727475;82;21029;-72
2021/06/15 04:10:57;;;;;;;7.03;6.37;;;;;;;20.60;71.53;99647.17;1693615;83;21513;-74
2021/06/15 04:13:25;;;;;;;11.50;7.90;;;;;;;20.69;70.26;99646.08;1686191;83;21162;-74
2021/06/15 04:15:53;;;;;;;8.73;6.97;;;;;;;20.69;70.26;99646.08;1708274;82;21008;-73
2021/06/15 04:18:21;;;;;;;7.10;6.50;;;;;;;20.74;69.94;99651.40;1688213;83;20968;-74
2021/06/15 04:20:50;;;;;;;7.65;5.25;;;;;;;20.78;69.10;99651.56;1712486;83;21273;-73
2021/06/15 04:23:20;;;;;;;9.13;6.87;;;;;;;20.82;68.48;99648.42;1712688;83;21036;-75
2021/06/15 04:25:47;;;;;;;9.18;6.75;;;;;;;20.87;68.15;99651.02;1685393;83;21005;-75
2021/06/15 04:28:15;;;;;;;10.43;6.65;;;;;;;20.95;67.76;99649.44;1658154;85;21011;-75
2021/06/15 04:30:42;;;;;;;7.22;6.53;;;;;;;21.01;67.85;99654.41;1695604;84;21096;-75
2021/06/15 04:33:10;;;;;;;10.72;5.80;;;;;;;21.08;67.94;99658.86;1657649;85;21011;-74
2021/06/15 04:35:44;;;;;;;5.28;4.87;;;;;;;21.14;67.86;99656.81;1684644;83;21059;-76
2021/06/15 04:38:15;;;;;;;6.30;4.90;;;;;;;21.20;67.75;99659.61;1684889;83;21031;-75
2021/06/15 04:40:47;;;;;;;6.95;5.60;;;;;;;21.28;68.28;99662.38;1682014;85;21512;-74
2021/06/15 04:43:34;;;;;;;5.97;5.47;;;;;;;21.28;68.28;99662.38;1712304;83;21006;-73
2021/06/15 04:46:20;;;;;;;8.78;5.83;;;;;;;21.32;68.22;99662.53;1676815;83;21098;-73
2021/06/15 04:48:52;;;;;;;11.93;6.37;;;;;;;21.36;68.37;99663.49;1683161;85;21468;-73
2021/06/15 04:51:20;;;;;;;6.22;4.20;;;;;;;21.40;68.64;99660.34;1688349;83;21117;-73
2021/06/15 04:53:48;;;;;;;5.72;5.22;;;;;;;21.43;68.51;99663.83;1687830;83;20937;-73
2021/06/15 04:56:15;;;;;;;5.72;5.20;;;;;;;21.47;68.47;99662.61;1687798;83;21051;-72
2021/06/15 04:58:41;;;;;;;4.72;4.33;;;;;;;21.53;68.37;99656.66;1699767;82;20967;-73
2021/06/15 05:01:11;;;;;;;5.30;4.85;;;;;;;21.62;68.27;99660.76;1705568;82;21126;-73
2021/06/15 05:03:37;;;;;;;4.95;4.55;;;;;;;21.67;68.26;99664.14;1687918;83;21057;-74
2021/06/15 05:06:05;;;;;;;7.33;4.90;;;;;;;21.73;68.36;99665.55;1717820;82;21052;-74
2021/06/15 05:08:58;;;;;;;4.65;4.35;;;;;;;21.79;67.90;99671.67;1708846;82;21080;-75
2021/06/15 05:11:27;;;;;;;5.67;5.07;;;;;;;21.82;67.90;99669.67;1737473;82;21050;-74
2021/06/15 05:13:54;;;;;;;6.92;5.28;;;;;;;21.86;68.08;99671.19;1726257;81;21045;-75
2021/06/15 05:16:21;;;;;;;6.80;6.08;;;;;;;21.91;68.12;99665.55;1726842;81;21120;-73
2021/06/15 05:18:47;;;;;;;6.95;4.72;;;;;;;21.94;68.21;99664.91;1733309;82;21086;-73
2021/06/15 05:21:22;;;;;;;4.80;4.40;;;;;;;21.97;68.12;99666.43;1708719;82;21120;-74
2021/06/15 05:24:00;;;;;;;5.65;4.92;;;;;;;22.03;68.22;99667.88;1736809;82;21461;-75
2021/06/15 05:26:27;;;;;;;11.97;5.15;;;;;;;22.09;67.96;99663.84;1707981;84;20931;-73
2021/06/15 05:28:53;;;;;;;6.30;5.70;;;;;;;22.14;67.83;99656.81;1689043;82;21740;-74
2021/06/15 05:31:20;;;;;;;7.17;4.25;;;;;;;22.20;67.73;99661.55;1762834;81;20924;-74
2021/06/15 05:33:46;;;;;;;5.70;5.20;;;;;;;22.26;67.57;99664.89;1727232;82;21556;-72
2021/06/15 05:36:13;;;;;;;8.38;5.62;;;;;;;22.32;67.60;99664.40;1712641;82;21044;-76
2021/06/15 05:38:40;;;;;;;4.53;4.22;;;;;;;22.35;67.73;99670.58;1688687;82;21079;-73
2021/06/15 05:41:07;;;;;;;5.83;4.80;;;;;;;22.38;67.33;99666.40;1645557;85;21051;-73
2021/06/15 05:43:33;;;;;;;5.67;5.17;;;;;;;22.40;67.22;99672.34;1712300;83;20971;-73
2021/06/15 05:46:00;;;;;;;4.33;3.92;;;;;;;22.42;67.00;99670.89;1683516;85;21037;-73
2021/06/15 05:48:27;;;;;;;6.10;4.12;;;;;;;22.47;67.12;99668.53;1716191;82;21440;-73
2021/06/15 05:50:54;;;;;;;5.30;4.65;;;;;;;22.53;67.22;99679.00;1721324;82;21086;-74
2021/06/15 05:53:21;;;;;;;5.03;4.25;;;;;;;22.56;66.81;99668.73;1712496;83;21599;-75
2021/06/15 05:55:47;;;;;;;6.60;4.72;;;;;;;22.60;67.02;99672.98;1712026;83;20959;-74
2021/06/15 05:58:14;;;;;;;5.30;4.70;;;;;;;22.65;67.03;99678.28;1712558;82;20951;-74
2021/06/15 06:00:41;;;;;;;4.97;4.30;;;;;;;22.69;66.80;99679.79;1667649;85;21547;-77
2021/06/15 06:03:07;;;;;;;5.20;4.12;;;;;;;22.71;66.70;99667.97;1763803;81;21047;-74
2021/06/15 06:08:21;;;;;;;4.85;4.35;;;;;;;22.84;66.74;99666.92;1746429;81;20967;-75
2021/06/15 06:10:48;;;;;;;9.33;5.65;;;;;;;22.94;66.89;99668.72;1763167;81;21569;-74
2021/06/15 06:13:14;;;;;;;9.45;4.62;;;;;;;23.03;66.71;99664.54;1683850;85;21014;-76
2021/06/15 06:15:41;;;;;;;4.53;4.12;;;;;;;23.12;66.41;99657.64;1748261;82;20991;-74
2021/06/15 06:18:10;;;;;;;10.78;5.53;;;;;;;23.16;66.07;99659.39;1737305;82;21145;-75
2021/06/15 06:20:38;;;;;;;7.10;5.65;;;;;;;23.22;66.08;99663.52;1697699;83;21196;-73
2021/06/15 06:23:05;;;;;;;6.30;5.30;;;;;;;23.24;66.03;99658.51;1718635;83;21047;-75
2021/06/15 06:25:34;;;;;;;8.98;5.12;;;;;;;23.28;65.92;99656.70;1697746;83;20944;-73
2021/06/15 06:28:03;;;;;;;6.17;4.62;;;;;;;23.32;65.92;99655.45;1699976;82;21003;-73
2021/06/15 06:30:31;;;;;;;6.62;4.42;;;;;;;23.37;65.80;99653.88;1748216;82;21879;-73
2021/06/15 06:32:58;;;;;;;9.78;5.33;;;;;;;23.40;65.47;99657.34;1746861;82;21003;-74
2021/06/15 06:35:24;;;;;;;4.85;4.45;;;;;;;23.45;65.52;99653.05;1655200;86;21072;-74
2021/06/15 06:37:50;;;;;;;7.50;4.45;;;;;;;23.51;65.47;99657.75;1703308;82;21051;-75
2021/06/15 06:40:17;;;;;;;6.42;4.85;;;;;;;23.57;65.16;99659.96;1699416;84;21036;-75
2021/06/15 06:42:43;;;;;;;5.50;4.30;;;;;;;23.62;65.03;99658.37;1679069;84;21008;-75
2021/06/15 06:45:11;;;;;;;9.33;4.40;;;;;;;23.64;65.09;99657.48;1678744;84;21027;-74
2021/06/15 06:47:37;;;;;;;5.25;4.83;;;;;;;23.70;65.23;99660.80;1653978;85;21556;-76
2021/06/15 06:50:06;;;;;;;12.07;3.87;;;;;;;23.72;64.67;99660.72;1675362;85;21367;-77
2021/06/15 06:52:33;;;;;;;5.50;5.00;;;;;;;23.76;64.67;99658.89;1670882;85;21075;-74
2021/06/15 06:54:59;;;;;;;8.83;4.70;;;;;;;23.83;64.49;99661.91;1661884;85;22246;-75
2021/06/15 06:57:25;;;;;;;4.67;4.28;;;;;;;23.86;64.12;99660.41;1718550;82;20996;-74
2021/06/15 06:59:52;;;;;;;4.95;4.20;;;;;;;23.91;64.13;99660.20;1748612;82;21591;-73
2021/06/15 07:02:19;;;;;;;7.83;4.25;;;;;;;23.95;63.99;99658.37;1734529;82;21461;-74
2021/06/15 07:04:45;;;;;;;6.58;4.72;;;;;;;23.99;63.92;99659.30;1688019;84;21723;-73
2021/06/15 07:07:12;;;;;;;7.37;4.58;;;;;;;24.04;63.66;99661.83;1656534;85;21079;-75
2021/06/15 07:09:38;;;;;;;4.40;4.05;;;;;;;24.10;63.83;99652.23;1692026;84;21015;-75
2021/06/15 07:12:07;;;;;;;5.35;4.62;;;;;;;24.15;63.23;99649.27;1749715;81;21524;-73
2021/06/15 07:14:33;;;;;;;9.45;4.95;;;;;;;24.19;62.19;99650.78;1749662;81;20956;-73
2021/06/15 07:17:00;;;;;;;7.62;3.80;;;;;;;24.21;61.95;99647.94;1750569;82;20992;-73
2021/06/15 07:19:26;;;;;;;6.47;4.30;;;;;;;24.26;62.24;99649.67;1750452;81;21148;-75
2021/06/15 07:21:53;;;;;;;4.42;4.03;;;;;;;24.33;62.18;99648.52;1729099;82;21031;-75
2021/06/15 07:24:19;;;;;;;7.55;4.33;;;;;;;24.37;62.33;99646.68;1725348;81;20932;-74
2021/06/15 07:26:46;;;;;;;7.15;4.42;;;;;;;24.40;62.36;99648.77;1696701;82;21095;-85
2021/06/15 07:29:12;;;;;;;7.37;4.12;;;;;;;24.43;61.82;99644.52;1746667;82;21028;-74
2021/06/15 07:31:39;;;;;;;6.17;4.37;;;;;;;24.49;61.85;99647.27;1750899;81;21095;-74
2021/06/15 07:34:05;;;;;;;4.60;4.28;;;;;;;24.54;62.07;99649.23;1731372;81;20980;-75
2021/06/15 07:36:33;;;;;;;3.98;3.67;;;;;;;24.61;61.59;99645.31;1694346;83;20956;-74
2021/06/15 07:39:00;;;;;;;5.58;4.70;;;;;;;24.68;60.92;99644.18;1684068;84;21565;-73
2021/06/15 07:41:26;;;;;;;6.85;4.37;;;;;;;24.75;60.74;99637.52;1694699;83;21060;-73
2021/06/15 07:43:53;;;;;;;4.08;3.77;;;;;;;24.81;60.07;99638.66;1708251;82;21225;-73
2021/06/15 07:46:20;;;;;;;4.58;4.17;;;;;;;24.84;59.71;99641.54;1705448;83;20972;-73
2021/06/15 07:48:46;;;;;;;5.15;4.03;;;;;;;24.88;59.63;99641.10;1697252;83;21031;-73
2021/06/15 07:51:13;;;;;;;4.05;3.72;;;;;;;24.91;60.06;99638.22;1711569;81;20983;-74
2021/06/15 07:53:40;;;;;;;4.92;3.72;;;;;;;24.94;60.09;99634.80;1744474;82;21642;-74
2021/06/15 07:56:06;;;;;;;5.85;4.72;;;;;;;24.99;60.04;99630.40;1694401;84;21146;-74
2021/06/15 07:58:33;;;;;;;4.40;3.90;;;;;;;25.02;59.62;99630.53;1696664;82;21024;-75
2021/06/15 08:01:00;;;;;;;4.55;3.80;;;;;;;25.06;59.82;99623.75;1720715;83;22190;-74
2021/06/15 08:03:26;;;;;;;6.20;5.35;;;;;;;25.10;60.21;99629.58;1700115;82;21497;-78
2021/06/15 08:05:54;;;;;;;5.95;4.15;;;;;;;25.15;60.90;99627.16;1740803;82;21477;-74
2021/06/15 08:08:20;;;;;;;9.53;4.67;;;;;;;25.21;60.83;99625.78;1726065;81;21084;-73
2021/06/15 08:10:47;;;;;;;5.25;4.15;;;;;;;25.28;60.70;99621.84;1720652;83;21016;-73
2021/06/15 08:13:14;;;;;;;6.90;4.83;;;;;;;25.33;60.45;99619.41;1697530;83;21496;-74
2021/06/15 08:15:42;;;;;;;5.12;4.67;;;;;;;25.38;60.51;99610.33;1749635;81;20928;-73
2021/06/15 08:18:09;;;;;;;8.73;4.58;;;;;;;25.42;60.04;99618.72;1753300;81;20936;-73
2021/06/15 08:20:36;;;;;;;7.03;4.37;;;;;;;25.44;59.47;99615.02;1753289;81;21094;-73
2021/06/15 08:23:03;;;;;;;9.88;4.87;;;;;;;25.47;59.57;99612.93;1723124;83;21461;-74
2021/06/15 08:25:30;;;;;;;5.80;5.00;;;;;;;25.50;59.98;99602.61;1743878;81;20948;-73
2021/06/15 08:27:57;;;;;;;5.47;4.60;;;;;;;25.52;60.00;99605.22;1705618;83;20995;-77
2021/06/15 08:30:23;;;;;;;6.70;4.67;;;;;;;25.58;60.14;99605.23;1746644;81;20923;-77
2021/06/15 08:32:50;;;;;;;6.50;3.75;;;;;;;25.66;59.34;99606.21;1682464;83;21010;-73
2021/06/15 08:35:16;;;;;;;4.55;4.15;;;;;;;25.75;59.47;99603.32;1707173;82;21038;-74
2021/06/15 08:37:43;;;;;;;5.85;4.42;;;;;;;25.84;58.85;99595.12;1713772;81;21063;-75
2021/06/15 08:40:11;;;;;;;9.28;4.25;;;;;;;25.92;58.68;99583.11;1704579;83;21121;-73
2021/06/15 08:42:38;;;;;;;6.25;4.15;;;;;;;25.96;58.37;99597.78;1697671;83;21041;-73
2021/06/15 08:45:07;;;;;;;7.50;3.98;;;;;;;25.97;57.91;99592.50;1710780;83;21143;-74
2021/06/15 08:47:43;;;;;;;4.42;4.08;;;;;;;25.99;57.58;99597.06;1730609;81;21007;-73
2021/06/15 08:50:13;;;;;;;4.90;4.33;;;;;;;26.01;57.79;99593.96;1702442;83;21520;-72
2021/06/15 08:52:39;;;;;;;5.47;4.00;;;;;;;26.05;57.53;99591.52;1741287;81;20969;-75
2021/06/15 08:55:07;;;;;;;4.22;3.83;;;;;;;26.11;56.17;99585.73;1687130;84;21104;-76
2021/06/15 08:57:36;;;;;;;4.17;3.83;;;;;;;26.17;55.24;99588.45;1702448;82;21129;-76
2021/06/15 09:00:05;;;;;;;7.25;3.55;;;;;;;26.21;55.62;99592.94;1701709;84;20922;-74
2021/06/15 09:02:43;;;;;;;4.40;4.00;;;;;;;26.28;55.49;99583.44;1705749;84;21582;-78
2021/06/15 09:05:11;;;;;;;4.08;3.65;;;;;;;26.34;54.80;99591.67;1702335;83;21024;-74
2021/06/15 09:08:00;;;;;;;5.17;4.17;;;;;;;26.34;54.72;99587.53;1702081;83;21032;-73
2021/06/15 09:10:29;;;;;;;5.35;3.75;;;;;;;26.36;55.00;99582.48;1681987;84;21062;-74
2021/06/15 09:12:56;;;;;;;6.00;3.27;;;;;;;26.42;55.15;99587.95;1695849;83;21007;-75
2021/06/15 09:15:23;;;;;;;5.35;3.83;;;;;;;26.48;53.85;99585.69;1659694;85;21093;-74
2021/06/15 09:17:50;;;;;;;5.08;3.35;;;;;;;26.55;54.13;99585.88;1646337;85;21599;-78
2021/06/15 09:20:31;;;;;;;6.12;3.70;;;;;;;26.64;53.95;99582.91;1658763;85;21289;-77
2021/06/15 09:23:06;;;;;;;9.63;3.60;;;;;;;26.75;52.30;99577.06;1698089;83;21125;-75
2021/06/15 09:25:34;;;;;;;3.72;3.15;;;;;;;26.85;50.97;99569.60;1719847;81;21056;-72
2021/06/15 09:28:22;;;;;;;4.17;3.33;;;;;;;26.97;51.10;99571.45;1730164;82;21063;-73
2021/06/15 09:31:05;;;;;;;6.03;3.17;;;;;;;27.08;49.81;99566.38;1725639;82;21011;-72
2021/06/15 09:33:43;;;;;;;3.77;2.75;;;;;;;27.10;48.35;99570.17;1732506;82;21079;-78
2021/06/15 09:36:21;;;;;;;3.50;3.20;;;;;;;27.16;49.44;99563.17;1703369;82;21738;-81
2021/06/15 09:39:03;;;;;;;3.33;3.05;;;;;;;27.20;49.33;99551.03;1688200;84;20908;-80
2021/06/15 09:41:39;;;;;;;4.30;3.90;;;;;;;27.25;49.01;99555.46;1715534;82;20932;-73
2021/06/15 09:44:28;;;;;;;3.40;3.10;;;;;;;27.33;48.40;99556.64;1731855;82;21050;-75
2021/06/15 09:47:00;;;;;;;5.28;3.00;;;;;;;27.44;48.26;99554.64;1683731;85;21123;-72
2021/06/15 09:49:42;;;;;;;4.42;2.55;;;;;;;27.50;44.97;99548.49;1734526;82;21506;-76
2021/06/15 09:52:26;;;;;;;3.60;3.30;;;;;;;27.58;45.16;99549.41;1712342;82;21007;-75
2021/06/15 09:55:03;;;;;;;2.65;2.40;;;;;;;27.65;44.83;99537.92;1725543;82;21023;-76
2021/06/15 09:57:34;;;;;;;3.80;3.40;;;;;;;27.68;44.53;99537.17;1696374;84;20956;-77
2021/06/15 10:00:14;;;;;;;3.22;2.92;;;;;;;27.74;45.11;99537.09;1705908;82;21032;-83
2021/06/15 10:03:00;;;;;;;4.37;2.70;;;;;;;27.82;44.62;99534.47;1724207;82;21111;-84
2021/06/15 10:05:37;;;;;;;5.65;2.72;;;;;;;27.88;45.36;99540.69;1710441;82;21567;-85
2021/06/15 10:08:06;;;;;;;4.42;2.80;;;;;;;27.93;45.70;99540.38;1735650;82;20951;-81
2021/06/15 10:10:37;;;;;;;3.50;3.20;;;;;;;27.92;45.96;99543.50;1735251;82;20966;-82
2021/06/15 10:13:04;;;;;;;4.95;3.33;;;;;;;27.89;46.20;99524.91;1713057;82;21050;-83
2021/06/15 10:15:31;;;;;;;5.80;3.45;;;;;;;27.83;45.71;99535.47;1712616;82;21579;-82
2021/06/15 10:17:58;;;;;;;5.30;3.33;;;;;;;27.80;45.93;99531.27;1735066;82;21099;-81
2021/06/15 10:20:29;;;;;;;3.30;2.87;;;;;;;27.78;45.09;99538.53;1695155;82;21042;-81
2021/06/15 10:22:55;;;;;;;3.45;3.15;;;;;;;27.85;45.43;99542.02;1736478;82;21469;-83
2021/06/15 10:25:24;;;;;;;5.33;3.42;;;;;;;27.95;45.88;99543.59;1714418;82;21012;-82
2021/06/15 10:27:51;;;;;;;3.90;3.60;;;;;;;28.00;46.29;99536.37;1737382;82;21162;-85
2021/06/15 10:30:21;;;;;;;3.77;3.40;;;;;;;28.04;46.33;99529.50;1712669;82;21080;-78
2021/06/15 10:32:59;;;;;;;3.25;2.47;;;;;;;28.17;45.53;99537.26;1733001;81;20960;-81
2021/06/15 10:35:44;;;;;;;4.87;3.22;;;;;;;28.29;45.11;99537.65;1719523;81;21503;-82
2021/06/15 10:38:18;;;;;;;8.10;4.72;;;;;;;28.34;45.51;99534.57;1742062;81;21050;-84
2021/06/15 10:40:49;;;;;;;11.15;4.95;;;;;;;28.47;44.19;99540.67;1759792;81;21159;-81
2021/06/15 10:43:26;;;;;;;17.87;5.20;;;;;;;28.60;42.26;99536.51;1767966;81;20990;-82
2021/06/15 10:45:56;;;;;;;9.45;3.98;;;;;;;28.75;42.44;99537.53;1750451;81;21036;-83
2021/06/15 10:48:29;;;;;;;7.78;4.75;;;;;;;28.87;42.41;99528.40;1726797;83;20892;-77
2021/06/15 10:50:58;;;;;;;4.47;3.60;;;;;;;28.93;42.72;99528.87;1726103;83;21064;-75
2021/06/15 10:53:37;;;;;;;5.03;3.10;;;;;;;28.96;42.51;99526.17;1725483;83;21244;-74
2021/06/15 10:56:10;;;;;;;5.90;4.15;;;;;;;29.00;41.81;99520.66;1729505;81;21040;-75
2021/06/15 10:58:44;;;;;;;6.83;3.72;;;;;;;29.02;42.19;99526.02;1712331;82;24857;-73
2021/06/15 11:01:15;;;;;;;;;;;;;;;29.12;42.62;99524.55;1754985;81;21110;-73
2021/06/15 11:04:06;;;;;;;6.45;4.30;;;;;;;29.22;42.03;99523.08;1741852;81;20162;-75
2021/06/15 11:06:37;;;;;;;5.37;3.40;;;;;;;29.27;42.10;99517.20;1752150;81;21072;-73
2021/06/15 11:09:16;;;;;;;2.98;2.67;;;;;;;29.35;40.88;99513.39;1737338;82;21125;-75
2021/06/15 11:11:52;;;;;;;6.05;3.20;;;;;;;29.38;39.66;99506.48;1737362;82;20987;-75
2021/06/15 11:14:20;;;;;;;6.92;3.60;;;;;;;29.40;39.77;99496.42;1733361;81;21623;-72
2021/06/15 11:16:50;;;;;;;3.75;3.15;;;;;;;29.45;40.08;99501.00;1714785;81;21524;-73
2021/06/15 11:19:25;;;;;;;4.35;2.85;;;;;;;29.50;40.20;99493.55;1720163;82;21157;-74
2021/06/15 11:22:10;;;;;;;3.85;2.95;;;;;;;29.58;39.69;99487.69;1708202;83;21052;-75
2021/06/15 11:24:54;;;;;;;2.67;2.47;;;;;;;29.58;39.96;99489.07;1727615;82;20949;-74
2021/06/15 11:27:28;;;;;;;6.45;3.12;;;;;;;29.53;40.52;99475.55;1677984;83;21038;-73
2021/06/15 11:30:15;;;;;;;3.42;3.10;;;;;;;29.59;39.60;99464.33;1767923;81;21106;-75
2021/06/15 11:33:04;;;;;;;5.67;2.92;;;;;;;29.70;39.82;99461.63;1753040;81;21149;-78
2021/06/15 11:35:41;;;;;;;9.28;3.58;;;;;;;29.87;37.94;99463.77;1730542;81;21056;-77
2021/06/15 11:38:16;;;;;;;5.95;3.05;;;;;;;29.95;38.97;99457.12;1685684;83;21047;-78
2021/06/15 11:40:43;;;;;;;4.42;3.55;;;;;;;29.99;39.32;99456.55;1739770;81;21106;-73
2021/06/15 11:43:17;;;;;;;2.98;2.77;;;;;;;29.96;39.76;99453.75;1720772;81;20963;-75
2021/06/15 11:45:52;;;;;;;6.15;3.12;;;;;;;29.91;40.15;99455.50;1725374;83;21149;-73
2021/06/15 11:48:34;;;;;;;20.70;3.22;;;;;;;29.82;40.41;99457.19;1734346;82;21046;-75
2021/06/15 11:51:05;;;;;;;9.15;4.40;;;;;;;29.66;40.32;99451.91;1726846;82;20973;-75
2021/06/15 11:53:40;;;;;;;10.98;3.62;;;;;;;29.45;40.65;99444.78;1747306;81;20940;-77